sensor_id;sensor_type;location;lat;lon;timestamp;pressure;altitude;pressure_sealevel;temperature;humidity
1776;BME280;885;42.626;23.200;2023-11-21T00:01:07;137187.84;;;4.99;100.00
1776;BME280;885;42.626;23.200;2023-11-21T00:03:34;137187.84;;;4.99;100.00
1776;BME280;885;42.626;23.200;2023-11-21T00:06:01;137568.69;;;5.06;100.00
1776;BME280;885;42.626;23.200;2023-11-21T00:08:28;138650.63;;;5.00;100.00
1776;BME280;885;42.626;23.200;2023-11-21T00:10:55;139756.63;;;5.04;100.00
1776;BME280;885;42.626;23.200;2023-11-21T00:13:22;141226.25;;;5.08;100.00
1776;BME280;885;42.626;23.200;2023-11-21T00:15:50;141215.81;;;5.03;100.00
1776;BME280;885;42.626;23.200;2023-11-21T00:18:17;140472.38;;;4.98;100.00
1776;BME280;885;42.626;23.200;2023-11-21T00:20:44;140837.72;;;4.98;100.00
1776;BME280;885;42.626;23.200;2023-11-21T00:23:11;141569.69;;;4.98;100.00
1776;BME280;885;42.626;23.200;2023-11-21T00:25:38;141926.97;;;4.95;100.00
1776;BME280;885;42.626;23.200;2023-11-21T00:28:05;141908.38;;;4.87;100.00
1776;BME280;885;42.626;23.200;2023-11-21T00:30:32;142285.47;;;4.92;100.00
1776;BME280;885;42.626;23.200;2023-11-21T00:33:00;142653.28;;;4.93;100.00
1776;BME280;885;42.626;23.200;2023-11-21T00:35:27;143396.13;;;4.98;100.00
1776;BME280;885;42.626;23.200;2023-11-21T00:37:54;143391.41;;;4.96;100.00
1776;BME280;885;42.626;23.200;2023-11-21T00:40:20;143741.69;;;4.89;100.00
1776;BME280;885;42.626;23.200;2023-11-21T00:42:48;143724.03;;;4.81;100.00
1776;BME280;885;42.626;23.200;2023-11-21T00:45:14;143721.63;;;4.80;100.00
1776;BME280;885;42.626;23.200;2023-11-21T00:47:41;143711.03;;;4.76;100.00
1776;BME280;885;42.626;23.200;2023-11-21T00:50:10;142969.53;;;4.71;100.00
1776;BME280;885;42.626;23.200;2023-11-21T00:52:37;143688.66;;;4.66;100.00
1776;BME280;885;42.626;23.200;2023-11-21T00:55:05;144799.34;;;4.72;100.00
1776;BME280;885;42.626;23.200;2023-11-21T00:57:33;145883.06;;;4.67;100.00
1776;BME280;885;42.626;23.200;2023-11-21T00:59:59;146601.13;;;4.61;100.00
1776;BME280;885;42.626;23.200;2023-11-21T01:02:26;148809.16;;;4.67;100.00
1776;BME280;885;42.626;23.200;2023-11-21T01:04:54;149902.06;;;4.65;100.00
1776;BME280;885;42.626;23.200;2023-11-21T01:07:22;149151.75;;;4.57;100.00
1776;BME280;885;42.626;23.200;2023-11-21T01:09:49;148038.50;;;4.51;100.00
1776;BME280;885;42.626;23.200;2023-11-21T01:12:16;147305.91;;;4.50;100.00
1776;BME280;885;42.626;23.200;2023-11-21T01:14:44;146197.09;;;4.45;100.00
1776;BME280;885;42.626;23.200;2023-11-21T01:17:11;146201.88;;;4.47;100.00
1776;BME280;885;42.626;23.200;2023-11-21T01:19:38;145828.00;;;4.44;100.00
1776;BME280;885;42.626;23.200;2023-11-21T01:22:05;146199.47;;;4.46;100.00
1776;BME280;885;42.626;23.200;2023-11-21T01:24:33;146929.44;;;4.46;100.00
1776;BME280;885;42.626;23.200;2023-11-21T01:27:00;147296.22;;;4.46;100.00
1776;BME280;885;42.626;23.200;2023-11-21T01:29:26;147669.16;;;4.49;100.00
1776;BME280;885;42.626;23.200;2023-11-21T01:31:53;147674.00;;;4.51;100.00
1776;BME280;885;42.626;23.200;2023-11-21T01:34:22;148039.72;;;4.51;100.00
1776;BME280;885;42.626;23.200;2023-11-21T01:36:49;148751.72;;;4.43;100.00
1776;BME280;885;42.626;23.200;2023-11-21T01:39:15;150208.75;;;4.41;100.00
1776;BME280;885;42.626;23.200;2023-11-21T01:41:50;151673.72;;;4.41;100.00
1776;BME280;885;42.626;23.200;2023-11-21T01:44:17;152408.22;;;4.42;100.00
1776;BME280;885;42.626;23.200;2023-11-21T01:46:44;152771.81;;;4.41;100.00
1776;BME280;885;42.626;23.200;2023-11-21T01:49:13;153150.50;;;4.46;100.00
1776;BME280;885;42.626;23.200;2023-11-21T01:51:43;152408.22;;;4.42;100.00
1776;BME280;885;42.626;23.200;2023-11-21T01:54:13;152407.03;;;4.42;100.00
1776;BME280;885;42.626;23.200;2023-11-21T01:56:40;152399.47;;;4.39;100.00
1776;BME280;885;42.626;23.200;2023-11-21T01:59:09;152395.72;;;4.37;100.00
1776;BME280;885;42.626;23.200;2023-11-21T02:01:37;152391.94;;;4.36;100.00
1776;BME280;885;42.626;23.200;2023-11-21T02:04:03;152007.19;;;4.28;100.00
1776;BME280;885;42.626;23.200;2023-11-21T02:06:30;152375.69;;;4.29;100.00
1776;BME280;885;42.626;23.200;2023-11-21T02:08:57;153127.84;;;4.37;100.00
1776;BME280;885;42.626;23.200;2023-11-21T02:11:25;153151.75;;;4.47;100.00
1776;BME280;885;42.626;23.200;2023-11-21T02:13:52;153155.53;;;4.48;100.00
1776;BME280;885;42.626;23.200;2023-11-21T02:16:21;153148.00;;;4.45;100.00
1776;BME280;885;42.626;23.200;2023-11-21T02:18:48;153879.06;;;4.45;100.00
1776;BME280;885;42.626;23.200;2023-11-21T02:21:16;154244.00;;;4.44;100.00
1776;BME280;885;42.626;23.200;2023-11-21T02:23:45;154606.47;;;4.43;100.00
1776;BME280;885;42.626;23.200;2023-11-21T02:26:12;154596.28;;;4.39;100.00
1776;BME280;885;42.626;23.200;2023-11-21T02:28:39;154591.19;;;4.37;100.00
1776;BME280;885;42.626;23.200;2023-11-21T02:31:06;154948.53;;;4.33;100.00
1776;BME280;885;42.626;23.200;2023-11-21T02:33:33;155317.31;;;4.34;100.00
1776;BME280;885;42.626;23.200;2023-11-21T02:36:00;155686.16;;;4.35;100.00
1776;BME280;885;42.626;23.200;2023-11-21T02:38:26;156048.59;;;4.34;100.00
1776;BME280;885;42.626;23.200;2023-11-21T02:40:57;156418.84;;;4.35;100.00
1776;BME280;885;42.626;23.200;2023-11-21T02:43:23;157531.03;;;4.40;100.00
1776;BME280;885;42.626;23.200;2023-11-21T02:45:50;157900.19;;;4.41;100.00
1776;BME280;885;42.626;23.200;2023-11-21T02:48:17;158279.75;;;4.46;100.00
1776;BME280;885;42.626;23.200;2023-11-21T02:50:44;158277.16;;;4.45;100.00
1776;BME280;885;42.626;23.200;2023-11-21T02:53:10;158275.84;;;4.45;100.00
1776;BME280;885;42.626;23.200;2023-11-21T02:55:38;158284.94;;;4.48;100.00
1776;BME280;885;42.626;23.200;2023-11-21T02:58:06;157939.22;;;4.56;100.00
1776;BME280;885;42.626;23.200;2023-11-21T03:00:33;157960.00;;;4.64;100.00
1776;BME280;885;42.626;23.200;2023-11-21T03:02:59;157967.78;;;4.67;100.00
1776;BME280;885;42.626;23.200;2023-11-21T03:05:26;157608.91;;;4.70;100.00
1776;BME280;885;42.626;23.200;2023-11-21T03:07:54;156862.66;;;4.65;100.00
1776;BME280;885;42.626;23.200;2023-11-21T03:10:21;156496.09;;;4.65;100.00
1776;BME280;885;42.626;23.200;2023-11-21T03:12:48;156128.28;;;4.65;100.00
1776;BME280;885;42.626;23.200;2023-11-21T03:15:16;155761.78;;;4.65;100.00
1776;BME280;885;42.626;23.200;2023-11-21T03:17:43;155383.78;;;4.60;100.00
1776;BME280;885;42.626;23.200;2023-11-21T03:20:10;155381.22;;;4.59;100.00
1776;BME280;885;42.626;23.200;2023-11-21T03:22:39;155004.59;;;4.55;100.00
1776;BME280;885;42.626;23.200;2023-11-21T03:25:07;154254.16;;;4.48;100.00
1776;BME280;885;42.626;23.200;2023-11-21T03:27:36;154611.53;;;4.45;100.00
1776;BME280;885;42.626;23.200;2023-11-21T03:30:05;154989.31;;;4.49;100.00
1776;BME280;885;42.626;23.200;2023-11-21T03:32:34;155363.34;;;4.52;100.00
1776;BME280;885;42.626;23.200;2023-11-21T03:35:01;155727.16;;;4.51;100.00
1776;BME280;885;42.626;23.200;2023-11-21T03:37:28;155719.44;;;4.48;100.00
1776;BME280;885;42.626;23.200;2023-11-21T03:39:55;155341.63;;;4.44;100.00
1776;BME280;885;42.626;23.200;2023-11-21T03:42:23;155719.44;;;4.48;100.00
1776;BME280;885;42.626;23.200;2023-11-21T03:44:51;155711.78;;;4.45;100.00
1776;BME280;885;42.626;23.200;2023-11-21T03:47:18;155709.19;;;4.44;100.00
1776;BME280;885;42.626;23.200;2023-11-21T03:49:47;155317.31;;;4.34;100.00
1776;BME280;885;42.626;23.200;2023-11-21T03:52:13;155313.47;;;4.33;100.00
1776;BME280;885;42.626;23.200;2023-11-21T03:54:40;155304.56;;;4.29;100.00
1776;BME280;885;42.626;23.200;2023-11-21T03:57:08;154925.56;;;4.24;100.00
1776;BME280;885;42.626;23.200;2023-11-21T03:59:35;154917.88;;;4.21;100.00
1776;BME280;885;42.626;23.200;2023-11-21T04:02:03;154546.66;;;4.19;100.00
1776;BME280;885;42.626;23.200;2023-11-21T04:04:30;154169.19;;;4.15;100.00
1776;BME280;885;42.626;23.200;2023-11-21T04:06:58;153790.50;;;4.10;100.00
1776;BME280;885;42.626;23.200;2023-11-21T04:09:25;153781.66;;;4.06;100.00
1776;BME280;885;42.626;23.200;2023-11-21T04:11:52;153776.59;;;4.04;100.00
1776;BME280;885;42.626;23.200;2023-11-21T04:14:20;153771.53;;;4.02;100.00
1776;BME280;885;42.626;23.200;2023-11-21T04:16:47;153762.63;;;3.98;100.00
1776;BME280;885;42.626;23.200;2023-11-21T04:19:14;154493.25;;;3.98;100.00
1776;BME280;885;42.626;23.200;2023-11-21T04:21:41;154859.25;;;3.98;100.00
1776;BME280;885;42.626;23.200;2023-11-21T04:24:09;155221.44;;;3.96;100.00
1776;BME280;885;42.626;23.200;2023-11-21T04:26:36;155213.81;;;3.93;100.00
1776;BME280;885;42.626;23.200;2023-11-21T04:29:03;154841.44;;;3.91;100.00
1776;BME280;885;42.626;23.200;2023-11-21T04:31:31;154831.25;;;3.87;100.00
1776;BME280;885;42.626;23.200;2023-11-21T04:33:57;154828.66;;;3.86;100.00
1776;BME280;885;42.626;23.200;2023-11-21T04:36:24;154828.66;;;3.86;100.00
1776;BME280;885;42.626;23.200;2023-11-21T04:38:51;154457.66;;;3.84;100.00
1776;BME280;885;42.626;23.200;2023-11-21T04:41:19;154464.03;;;3.86;100.00
1776;BME280;885;42.626;23.200;2023-11-21T04:43:46;154456.38;;;3.83;100.00
1776;BME280;885;42.626;23.200;2023-11-21T04:46:13;154095.59;;;3.85;100.00
1776;BME280;885;42.626;23.200;2023-11-21T04:48:40;154451.31;;;3.81;100.00
1776;BME280;885;42.626;23.200;2023-11-21T04:51:06;154819.75;;;3.82;100.00
1776;BME280;885;42.626;23.200;2023-11-21T04:53:33;154824.84;;;3.84;100.00
1776;BME280;885;42.626;23.200;2023-11-21T04:56:01;155190.81;;;3.84;100.00
1776;BME280;885;42.626;23.200;2023-11-21T04:58:30;156292.66;;;3.86;100.00
1776;BME280;885;42.626;23.200;2023-11-21T05:00:57;157032.63;;;3.89;100.00
1776;BME280;885;42.626;23.200;2023-11-21T05:03:24;157401.38;;;3.90;100.00
1776;BME280;885;42.626;23.200;2023-11-21T05:05:51;157776.69;;;3.93;100.00
1776;BME280;885;42.626;23.200;2023-11-21T05:08:18;158522.28;;;3.98;100.00
1776;BME280;885;42.626;23.200;2023-11-21T05:10:46;158526.22;;;4.00;100.00
1776;BME280;885;42.626;23.200;2023-11-21T05:13:13;158520.97;;;3.98;100.00
1776;BME280;885;42.626;23.200;2023-11-21T05:15:46;158515.72;;;3.96;100.00
1776;BME280;885;42.626;23.200;2023-11-21T05:18:12;158517.06;;;3.96;100.00
1776;BME280;885;42.626;23.200;2023-11-21T05:20:40;158501.38;;;3.90;100.00
1776;BME280;885;42.626;23.200;2023-11-21T05:23:07;158112.97;;;3.82;100.00
1776;BME280;885;42.626;23.200;2023-11-21T05:25:34;157733.81;;;3.77;100.00
1776;BME280;885;42.626;23.200;2023-11-21T05:28:01;157718.19;;;3.71;100.00
1776;BME280;885;42.626;23.200;2023-11-21T05:30:29;158092.13;;;3.74;100.00
1776;BME280;885;42.626;23.200;2023-11-21T05:32:57;158467.41;;;3.77;100.00
1776;BME280;885;42.626;23.200;2023-11-21T05:35:24;159214.34;;;3.83;100.00
1776;BME280;885;42.626;23.200;2023-11-21T05:37:52;159591.19;;;3.87;100.00
1776;BME280;885;42.626;23.200;2023-11-21T05:40:18;160338.50;;;3.92;100.00
1776;BME280;885;42.626;23.200;2023-11-21T05:42:47;160706.31;;;3.93;100.00
1776;BME280;885;42.626;23.200;2023-11-21T05:45:16;161447.31;;;3.96;100.00
1776;BME280;885;42.626;23.200;2023-11-21T05:47:45;162196.63;;;4.02;100.00
1776;BME280;885;42.626;23.200;2023-11-21T05:50:15;162946.16;;;4.08;100.00
1776;BME280;885;42.626;23.200;2023-11-21T05:52:42;163326.41;;;4.13;100.00
1776;BME280;885;42.626;23.200;2023-11-21T05:55:09;163700.03;;;4.16;100.00
1776;BME280;885;42.626;23.200;2023-11-21T05:57:37;163708.16;;;4.19;100.00
1776;BME280;885;42.626;23.200;2023-11-21T06:00:06;164091.31;;;4.25;100.00
1776;BME280;885;42.626;23.200;2023-11-21T06:02:37;164111.59;;;4.32;100.00
1776;BME280;885;42.626;23.200;2023-11-21T06:05:05;164118.38;;;4.35;100.00
1776;BME280;885;42.626;23.200;2023-11-21T06:07:33;164137.34;;;4.42;100.00
1776;BME280;885;42.626;23.200;2023-11-21T06:10:01;163782.38;;;4.46;100.00
1776;BME280;885;42.626;23.200;2023-11-21T06:12:31;163795.91;;;4.51;100.00
1776;BME280;885;42.626;23.200;2023-11-21T06:15:01;163808.06;;;4.56;100.00
1776;BME280;885;42.626;23.200;2023-11-21T06:17:29;163822.91;;;4.61;100.00
1776;BME280;885;42.626;23.200;2023-11-21T06:19:56;163833.72;;;4.65;100.00
1776;BME280;885;42.626;23.200;2023-11-21T06:22:23;164228.00;;;4.75;100.00
1776;BME280;885;42.626;23.200;2023-11-21T06:24:51;164249.72;;;4.83;100.00
1776;BME280;885;42.626;23.200;2023-11-21T06:27:18;164286.25;;;4.97;100.00
1776;BME280;885;42.626;23.200;2023-11-21T06:29:45;164276.78;;;4.94;100.00
1776;BME280;885;42.626;23.200;2023-11-21T06:32:12;164306.59;;;5.05;100.00
1776;BME280;885;42.626;23.200;2023-11-21T06:34:41;164322.84;;;5.11;100.00
1776;BME280;885;42.626;23.200;2023-11-21T06:37:08;163970.19;;;5.16;100.00
1776;BME280;885;42.626;23.200;2023-11-21T06:39:35;163986.38;;;5.22;100.00
1776;BME280;885;42.626;23.200;2023-11-21T06:42:04;164014.78;;;5.33;100.00
1776;BME280;885;42.626;23.200;2023-11-21T06:44:31;163657.94;;;5.37;100.00
1776;BME280;885;42.626;23.200;2023-11-21T06:46:58;163288.97;;;5.36;100.00
1776;BME280;885;42.626;23.200;2023-11-21T06:49:25;162553.88;;;5.36;100.00
1776;BME280;885;42.626;23.200;2023-11-21T06:51:52;162571.28;;;5.43;100.00
1776;BME280;885;42.626;23.200;2023-11-21T06:54:20;162221.13;;;5.49;100.00
1776;BME280;885;42.626;23.200;2023-11-21T06:56:48;161846.91;;;5.47;100.00
1776;BME280;885;42.626;23.200;2023-11-21T06:59:16;161110.63;;;5.46;100.00
1776;BME280;885;42.626;23.200;2023-11-21T07:01:43;160753.78;;;5.50;100.00
1776;BME280;885;42.626;23.200;2023-11-21T07:04:10;159652.88;;;5.51;100.00
1776;BME280;885;42.626;23.200;2023-11-21T07:06:36;158556.19;;;5.53;100.00
1776;BME280;885;42.626;23.200;2023-11-21T07:09:03;157462.31;;;5.56;100.00
1776;BME280;885;42.626;23.200;2023-11-21T07:11:30;157865.84;;;5.70;100.00
1776;BME280;885;42.626;23.200;2023-11-21T07:13:58;157485.66;;;5.65;100.00
1776;BME280;885;42.626;23.200;2023-11-21T07:16:26;156387.91;;;5.67;100.00
1776;BME280;885;42.626;23.200;2023-11-21T07:18:52;154904.25;;;5.60;100.00
1776;BME280;885;42.626;23.200;2023-11-21T07:21:20;154944.97;;;5.77;100.00
1776;BME280;885;42.626;23.200;2023-11-21T07:23:47;155356.84;;;5.94;100.00
1776;BME280;885;42.626;23.200;2023-11-21T07:26:13;155777.84;;;6.15;100.00
1776;BME280;885;42.626;23.200;2023-11-21T07:28:40;155451.31;;;6.31;100.00
1776;BME280;885;42.626;23.200;2023-11-21T07:31:07;155501.16;;;6.51;100.00
1776;BME280;885;42.626;23.200;2023-11-21T07:33:35;155916.13;;;6.70;100.00
1776;BME280;885;42.626;23.200;2023-11-21T07:36:02;155950.69;;;6.83;100.00
1776;BME280;885;42.626;23.200;2023-11-21T07:38:28;155971.16;;;6.91;100.00
1776;BME280;885;42.626;23.200;2023-11-21T07:40:55;155619.91;;;6.98;100.00
1776;BME280;885;42.626;23.200;2023-11-21T07:43:22;155272.44;;;7.06;100.00
1776;BME280;885;42.626;23.200;2023-11-21T07:45:48;154940.22;;;7.20;100.00
1776;BME280;885;42.626;23.200;2023-11-21T07:48:15;154214.50;;;7.24;100.00
1776;BME280;885;42.626;23.200;2023-11-21T07:50:43;153483.75;;;7.26;100.00
1776;BME280;885;42.626;23.200;2023-11-21T07:53:12;153873.09;;;7.35;100.00
1776;BME280;885;42.626;23.200;2023-11-21T07:55:38;153923.59;;;7.55;100.00
1776;BME280;885;42.626;23.200;2023-11-21T07:58:05;153990.50;;;7.81;100.00
1776;BME280;885;42.626;23.200;2023-11-21T08:00:32;152926.09;;;7.97;100.00
1776;BME280;885;42.626;23.200;2023-11-21T08:03:00;151866.28;;;8.16;99.48
1776;BME280;885;42.626;23.200;2023-11-21T08:05:27;150047.53;;;8.25;96.75
1776;BME280;885;42.626;23.200;2023-11-21T08:07:55;147823.50;;;8.18;92.70
1776;BME280;885;42.626;23.200;2023-11-21T08:10:21;147465.25;;;8.22;94.23
1776;BME280;885;42.626;23.200;2023-11-21T08:12:48;146713.91;;;8.16;94.83
1776;BME280;885;42.626;23.200;2023-11-21T08:15:15;147141.97;;;8.41;95.79
1776;BME280;885;42.626;23.200;2023-11-21T08:17:42;146446.78;;;8.58;93.55
1776;BME280;885;42.626;23.200;2023-11-21T08:20:10;146499.47;;;8.80;92.58
1776;BME280;885;42.626;23.200;2023-11-21T08:22:37;144289.91;;;8.79;88.56
1776;BME280;885;42.626;23.200;2023-11-21T08:25:08;142824.09;;;8.82;87.92
1776;BME280;885;42.626;23.200;2023-11-21T08:27:35;140948.41;;;8.66;88.52
1776;BME280;885;42.626;23.200;2023-11-21T08:30:02;140575.09;;;8.63;89.91
1776;BME280;885;42.626;23.200;2023-11-21T08:32:29;140961.06;;;8.71;88.87
1776;BME280;885;42.626;23.200;2023-11-21T08:34:57;140607.28;;;8.77;90.05
1776;BME280;885;42.626;23.200;2023-11-21T08:37:25;140976.03;;;8.78;90.90
1776;BME280;885;42.626;23.200;2023-11-21T08:39:52;141382.97;;;8.95;90.87
1776;BME280;885;42.626;23.200;2023-11-21T08:42:21;140653.19;;;8.98;90.29
1776;BME280;885;42.626;23.200;2023-11-21T08:44:48;140683.03;;;9.11;89.72
1776;BME280;885;42.626;23.200;2023-11-21T08:47:15;141477.63;;;9.36;89.44
1776;BME280;885;42.626;23.200;2023-11-21T08:49:42;141164.91;;;9.60;88.21
1776;BME280;885;42.626;23.200;2023-11-21T08:52:08;141192.53;;;9.73;87.70
1776;BME280;885;42.626;23.200;2023-11-21T08:54:35;141206.34;;;9.79;88.62
1776;BME280;885;42.626;23.200;2023-11-21T08:57:02;139728.91;;;9.77;86.67
1776;BME280;885;42.626;23.200;2023-11-21T08:59:30;140141.66;;;9.96;87.86
1776;BME280;885;42.626;23.200;2023-11-21T09:01:57;140170.22;;;10.09;87.87
1776;BME280;885;42.626;23.200;2023-11-21T09:04:24;140575.31;;;10.25;86.36
1776;BME280;885;42.626;23.200;2023-11-21T09:06:50;140606.28;;;10.38;87.95
1776;BME280;885;42.626;23.200;2023-11-21T09:09:17;140265.13;;;10.51;86.60
1776;BME280;885;42.626;23.200;2023-11-21T09:11:45;138807.78;;;10.58;82.42
1776;BME280;885;42.626;23.200;2023-11-21T09:14:14;138087.66;;;10.66;83.41
1776;BME280;885;42.626;23.200;2023-11-21T09:16:42;137328.25;;;10.56;83.09
1776;BME280;885;42.626;23.200;2023-11-21T09:19:09;138089.88;;;10.67;83.72
1776;BME280;885;42.626;23.200;2023-11-21T09:21:37;137718.00;;;10.65;85.16
1776;BME280;885;42.626;23.200;2023-11-21T09:24:05;136242.03;;;10.64;82.90
1776;BME280;885;42.626;23.200;2023-11-21T09:26:31;136237.59;;;10.62;83.38
1776;BME280;885;42.626;23.200;2023-11-21T09:28:58;136623.78;;;10.70;84.57
1776;BME280;885;42.626;23.200;2023-11-21T09:31:25;136266.44;;;10.75;83.96
1776;BME280;885;42.626;23.200;2023-11-21T09:33:54;136671.59;;;10.92;83.02
1776;BME280;885;42.626;23.200;2023-11-21T09:36:22;135551.69;;;10.85;82.65
1776;BME280;885;42.626;23.200;2023-11-21T09:38:52;135210.78;;;10.98;82.60
1776;BME280;885;42.626;23.200;2023-11-21T09:41:43;135990.97;;;11.17;81.11
1776;BME280;885;42.626;23.200;2023-11-21T09:44:13;135313.13;;;11.45;79.54
1776;BME280;885;42.626;23.200;2023-11-21T09:46:41;135360.50;;;11.66;80.16
1776;BME280;885;42.626;23.200;2023-11-21T09:49:11;135056.34;;;11.96;76.78
1776;BME280;885;42.626;23.200;2023-11-21T09:51:39;135120.06;;;12.25;76.47
1776;BME280;885;42.626;23.200;2023-11-21T09:54:10;133292.69;;;12.34;73.90
1776;BME280;885;42.626;23.200;2023-11-21T09:56:37;132582.53;;;12.47;72.67
1776;BME280;885;42.626;23.200;2023-11-21T09:59:05;131886.06;;;12.66;72.37
1776;BME280;885;42.626;23.200;2023-11-21T10:01:36;130815.78;;;12.84;71.14
1776;BME280;885;42.626;23.200;2023-11-21T10:04:04;128207.31;;;12.72;69.33
1776;BME280;885;42.626;23.200;2023-11-21T10:06:33;124492.91;;;12.58;65.94
1776;BME280;885;42.626;23.200;2023-11-21T10:09:00;121947.94;;;12.75;64.32
1776;BME280;885;42.626;23.200;2023-11-21T10:11:27;119762.66;;;12.88;62.37
1776;BME280;885;42.626;23.200;2023-11-21T10:13:58;117523.50;;;12.72;62.66
1776;BME280;885;42.626;23.200;2023-11-21T10:16:27;113047.84;;;12.37;61.78
1776;BME280;885;42.626;23.200;2023-11-21T10:18:55;113047.84;;;12.37;63.28
1776;BME280;885;42.626;23.200;2023-11-21T10:21:23;113412.44;;;12.36;65.56
1776;BME280;885;42.626;23.200;2023-11-21T10:23:53;113048.78;;;12.38;65.37
1776;BME280;885;42.626;23.200;2023-11-21T10:26:22;112152.97;;;12.25;66.26
1776;BME280;885;42.626;23.200;2023-11-21T10:28:56;111418.50;;;12.18;67.11
1776;BME280;885;42.626;23.200;2023-11-21T10:31:24;110555.66;;;12.17;66.23
1776;BME280;885;42.626;23.200;2023-11-21T10:33:50;111136.78;;;12.16;68.12
1776;BME280;885;42.626;23.200;2023-11-21T10:36:25;109228.94;;;12.07;67.14
1776;BME280;885;42.626;23.200;2023-11-21T10:38:54;109543.47;;;11.98;68.01
1776;BME280;885;42.626;23.200;2023-11-21T10:41:22;108740.84;;;11.95;68.63
1776;BME280;885;42.626;23.200;2023-11-21T10:43:53;108137.94;;;11.86;68.14
1776;BME280;885;42.626;23.200;2023-11-21T10:46:20;107290.84;;;11.78;68.20
1776;BME280;885;42.626;23.200;2023-11-21T10:48:52;106419.50;;;11.74;67.69
1776;BME280;885;42.626;23.200;2023-11-21T10:51:20;107100.81;;;11.84;68.57
1776;BME280;885;42.626;23.200;2023-11-21T10:53:47;106631.88;;;11.71;68.98
1776;BME280;885;42.626;23.200;2023-11-21T10:56:18;105887.31;;;11.64;68.46
1776;BME280;885;42.626;23.200;2023-11-21T10:58:48;105635.06;;;11.57;69.58
1776;BME280;885;42.626;23.200;2023-11-21T11:01:17;105370.81;;;11.53;69.93
1776;BME280;885;42.626;23.200;2023-11-21T11:03:44;106356.31;;;11.55;71.71
1776;BME280;885;42.626;23.200;2023-11-21T11:06:12;106219.88;;;11.51;70.87
1776;BME280;885;42.626;23.200;2023-11-21T11:08:40;106058.47;;;11.57;70.11
1776;BME280;885;42.626;23.200;2023-11-21T11:11:07;105227.09;;;11.47;71.50
1776;BME280;885;42.626;23.200;2023-11-21T11:13:37;105156.75;;;11.46;70.88
1776;BME280;885;42.626;23.200;2023-11-21T11:16:05;103763.38;;;11.22;71.42
1776;BME280;885;42.626;23.200;2023-11-21T11:18:35;103672.63;;;11.18;71.71
1776;BME280;885;42.626;23.200;2023-11-21T11:21:09;103593.72;;;11.14;71.43
1776;BME280;885;42.626;23.200;2023-11-21T11:23:46;104124.84;;;11.15;72.36
1776;BME280;885;42.626;23.200;2023-11-21T11:26:31;106420.75;;;11.38;74.11
1776;BME280;885;42.626;23.200;2023-11-21T11:29:08;104893.88;;;11.28;72.83
1776;BME280;885;42.626;23.200;2023-11-21T11:31:48;106339.53;;;11.34;74.75
1776;BME280;885;42.626;23.200;2023-11-21T11:34:25;106339.00;;;11.27;74.58
1776;BME280;885;42.626;23.200;2023-11-21T11:37:00;107218.75;;;11.28;77.67
1776;BME280;885;42.626;23.200;2023-11-21T11:39:30;108970.84;;;11.27;78.63
1776;BME280;885;42.626;23.200;2023-11-21T11:41:57;107760.75;;;11.08;80.07
1776;BME280;885;42.626;23.200;2023-11-21T11:44:49;105692.53;;;10.99;75.97
1776;BME280;885;42.626;23.200;2023-11-21T11:47:20;106385.38;;;11.03;78.42
1776;BME280;885;42.626;23.200;2023-11-21T11:49:58;106122.38;;;11.03;77.69
1776;BME280;885;42.626;23.200;2023-11-21T11:52:36;106612.94;;;10.99;78.86
1776;BME280;885;42.626;23.200;2023-11-21T11:55:05;107435.13;;;10.95;79.05
1776;BME280;885;42.626;23.200;2023-11-21T11:57:33;110590.09;;;10.94;85.08
1776;BME280;885;42.626;23.200;2023-11-21T12:00:13;112015.69;;;10.80;87.30
1776;BME280;885;42.626;23.200;2023-11-21T12:02:46;112011.91;;;10.70;88.13
1776;BME280;885;42.626;23.200;2023-11-21T12:05:14;114195.06;;;10.62;90.77
1776;BME280;885;42.626;23.200;2023-11-21T12:07:46;118230.00;;;10.63;96.00
1776;BME280;885;42.626;23.200;2023-11-21T12:10:17;118201.28;;;10.48;95.29
1776;BME280;885;42.626;23.200;2023-11-21T12:12:48;118558.34;;;10.43;95.51
1776;BME280;885;42.626;23.200;2023-11-21T12:15:16;119656.53;;;10.42;96.12
1776;BME280;885;42.626;23.200;2023-11-21T12:17:44;119639.06;;;10.33;96.02
1776;BME280;885;42.626;23.200;2023-11-21T12:20:12;121472.91;;;10.33;97.48
1776;BME280;885;42.626;23.200;2023-11-21T12:22:44;122178.97;;;10.19;99.16
1776;BME280;885;42.626;23.200;2023-11-21T12:25:13;123273.59;;;10.16;99.39
1776;BME280;885;42.626;23.200;2023-11-21T12:27:42;124364.41;;;10.11;100.00
1776;BME280;885;42.626;23.200;2023-11-21T12:30:11;125457.31;;;10.07;100.00
1776;BME280;885;42.626;23.200;2023-11-21T12:32:43;126165.84;;;9.94;100.00
1776;BME280;885;42.626;23.200;2023-11-21T12:35:12;128724.41;;;9.89;100.00
1776;BME280;885;42.626;23.200;2023-11-21T12:37:40;130922.03;;;9.86;100.00
1776;BME280;885;42.626;23.200;2023-11-21T12:40:09;132010.47;;;9.79;100.00
1776;BME280;885;42.626;23.200;2023-11-21T12:42:37;133823.19;;;9.68;100.00
1776;BME280;885;42.626;23.200;2023-11-21T12:45:08;133814.44;;;9.63;100.00
1776;BME280;885;42.626;23.200;2023-11-21T12:47:40;136026.94;;;9.67;100.00
1776;BME280;885;42.626;23.200;2023-11-21T12:50:09;137132.59;;;9.68;100.00
1776;BME280;885;42.626;23.200;2023-11-21T12:52:45;136737.97;;;9.55;100.00
1776;BME280;885;42.626;23.200;2023-11-21T12:55:15;134140.53;;;9.44;100.00
1776;BME280;885;42.626;23.200;2023-11-21T12:57:42;133058.88;;;9.54;100.00
1776;BME280;885;42.626;23.200;2023-11-21T13:00:11;133799.22;;;9.56;100.00
1776;BME280;885;42.626;23.200;2023-11-21T13:02:52;133398.03;;;9.41;100.00
1776;BME280;885;42.626;23.200;2023-11-21T13:05:29;133014.47;;;9.33;100.00
1776;BME280;885;42.626;23.200;2023-11-21T13:07:57;133744.75;;;9.31;100.00
1776;BME280;885;42.626;23.200;2023-11-21T13:10:25;134492.63;;;9.37;100.00
1776;BME280;885;42.626;23.200;2023-11-21T13:12:56;134503.59;;;9.42;100.00
1776;BME280;885;42.626;23.200;2023-11-21T13:15:25;134106.63;;;9.29;100.00
1776;BME280;885;42.626;23.200;2023-11-21T13:17:53;134482.78;;;9.33;100.00